createdAt,value
2018-10-01T00:00:54.669Z,14.40
2018-10-01T00:03:22.951Z,11.60
2018-10-01T00:05:51.110Z,14.70
2018-10-01T00:08:19.308Z,10.40
2018-10-01T00:10:47.501Z,16.20
2018-10-01T00:13:15.707Z,12.80
2018-10-01T00:15:43.884Z,13.33
2018-10-01T00:18:12.460Z,12.70
2018-10-01T00:20:46.067Z,13.83
2018-10-01T00:23:14.267Z,14.50
2018-10-01T00:25:42.766Z,14.50
2018-10-01T00:28:10.983Z,15.13
2018-10-01T00:30:39.371Z,12.13
2018-10-01T00:33:07.572Z,11.60
2018-10-01T00:35:35.776Z,11.40
2018-10-01T00:38:04.078Z,10.10
2018-10-01T00:40:32.265Z,14.73
2018-10-01T00:43:00.448Z,12.17
2018-10-01T00:45:29.050Z,11.93
2018-10-01T00:47:57.308Z,11.13
2018-10-01T00:50:25.493Z,12.67
2018-10-01T00:52:53.696Z,16.50
2018-10-01T00:55:21.905Z,13.03
2018-10-01T00:57:50.112Z,12.07
2018-10-01T01:00:18.316Z,11.93
2018-10-01T01:02:46.551Z,10.10
2018-10-01T01:05:14.744Z,10.70
2018-10-01T01:07:43.553Z,10.77
2018-10-01T01:10:11.839Z,12.13
2018-10-01T01:12:40.315Z,11.77
2018-10-01T01:15:08.546Z,11.77
2018-10-01T01:17:36.753Z,11.93
2018-10-01T01:20:05.015Z,15.20
2018-10-01T01:22:33.530Z,11.97
2018-10-01T01:25:01.985Z,10.93
2018-10-01T01:27:30.529Z,11.47
2018-10-01T01:29:59.008Z,12.33
2018-10-01T01:32:27.186Z,10.33
2018-10-01T01:34:55.352Z,10.57
2018-10-01T01:37:23.491Z,13.43
2018-10-01T01:39:51.642Z,12.37
2018-10-01T01:42:19.791Z,10.43
2018-10-01T01:44:47.942Z,9.63
2018-10-01T01:47:16.127Z,12.20
2018-10-01T01:49:44.637Z,11.43
2018-10-01T01:52:12.799Z,10.73
2018-10-01T01:54:41.512Z,12.50
2018-10-01T01:57:09.667Z,12.67
2018-10-01T01:59:38.113Z,12.23
2018-10-01T02:02:06.314Z,12.90
2018-10-01T02:04:34.610Z,10.73
2018-10-01T02:07:03.058Z,11.23
2018-10-01T02:09:31.514Z,13.00
2018-10-01T02:11:59.935Z,11.23
2018-10-01T02:14:28.318Z,12.80
2018-10-01T02:16:56.699Z,10.47
2018-10-01T02:19:25.091Z,14.20
2018-10-01T02:21:53.438Z,15.03
2018-10-01T02:24:21.867Z,10.77
2018-10-01T02:26:50.281Z,10.73
2018-10-01T02:29:18.679Z,13.07
2018-10-01T02:31:47.058Z,11.83
2018-10-01T02:34:15.466Z,10.90
2018-10-01T02:36:43.869Z,13.37
2018-10-01T02:39:13.443Z,12.07
2018-10-01T02:41:42.048Z,13.00
2018-10-01T02:44:10.456Z,11.13
2018-10-01T02:46:39.005Z,12.73
2018-10-01T02:49:07.370Z,13.73
2018-10-01T02:51:40.035Z,12.90
2018-10-01T02:54:13.775Z,9.93
2018-10-01T02:56:42.142Z,13.60
2018-10-01T02:59:10.458Z,11.50
2018-10-01T03:01:38.834Z,11.33
2018-10-01T03:04:07.299Z,17.43
2018-10-01T03:06:35.694Z,10.50
2018-10-01T03:09:06.224Z,12.23
2018-10-01T03:11:34.532Z,16.10
2018-10-01T03:14:02.989Z,9.37
2018-10-01T03:16:31.402Z,12.00
2018-10-01T03:18:59.808Z,12.07
2018-10-01T03:21:28.321Z,12.20
2018-10-01T03:23:56.679Z,10.20
2018-10-01T03:26:25.351Z,11.93
2018-10-01T03:28:53.774Z,14.20
2018-10-01T03:31:22.154Z,10.03
2018-10-01T03:33:50.638Z,15.00
2018-10-01T03:36:18.988Z,13.07
2018-10-01T03:38:47.382Z,15.10
2018-10-01T03:41:15.730Z,17.57
2018-10-01T03:43:44.162Z,13.43
2018-10-01T03:46:12.556Z,15.80
2018-10-01T03:48:41.042Z,13.83
2018-10-01T03:51:09.442Z,14.03
2018-10-01T03:53:37.813Z,10.87
2018-10-01T03:56:06.139Z,13.83
2018-10-01T03:58:34.634Z,15.07
2018-10-01T04:01:03.144Z,11.93
2018-10-01T04:03:31.504Z,9.77
2018-10-01T04:05:59.881Z,12.70
2018-10-01T04:08:28.242Z,10.73
2018-10-01T04:10:56.751Z,11.57
2018-10-01T04:13:25.242Z,12.07
2018-10-01T04:15:53.641Z,16.83
2018-10-01T04:18:22.069Z,11.13
2018-10-01T04:20:50.427Z,11.53
2018-10-01T04:23:18.760Z,12.80
2018-10-01T04:25:47.147Z,15.27
2018-10-01T04:28:15.482Z,10.23
2018-10-01T04:30:44.264Z,10.80
2018-10-01T04:33:12.668Z,11.67
2018-10-01T04:35:41.049Z,12.10
2018-10-01T04:38:09.412Z,15.77
2018-10-01T04:40:37.927Z,8.63
2018-10-01T04:43:06.365Z,10.67
2018-10-01T04:45:34.887Z,11.97
2018-10-01T04:48:03.281Z,8.47
2018-10-01T04:50:31.701Z,12.57
2018-10-01T04:53:00.107Z,12.70
2018-10-01T04:55:28.542Z,12.23
2018-10-01T04:57:56.931Z,11.77
2018-10-01T05:00:25.376Z,11.13
2018-10-01T05:02:53.733Z,12.23
2018-10-01T05:05:22.073Z,10.57
2018-10-01T05:07:50.613Z,10.63
2018-10-01T05:10:19.041Z,8.40
2018-10-01T05:12:47.409Z,10.17
2018-10-01T05:15:15.789Z,10.17
2018-10-01T05:17:44.226Z,9.33
2018-10-01T05:20:12.698Z,9.80
2018-10-01T05:22:41.170Z,8.77
2018-10-01T05:25:09.626Z,10.57
2018-10-01T05:27:38.053Z,12.83
2018-10-01T05:30:06.465Z,11.30
2018-10-01T05:32:34.788Z,11.27
2018-10-01T05:35:03.236Z,8.87
2018-10-01T05:37:31.642Z,8.27
2018-10-01T05:40:00.017Z,12.63
2018-10-01T05:42:28.380Z,10.97
2018-10-01T05:44:56.702Z,7.10
2018-10-01T05:47:25.113Z,9.37
2018-10-01T05:50:00.148Z,7.97
2018-10-01T05:52:28.562Z,8.47
2018-10-01T05:54:57.175Z,12.10
2018-10-01T05:57:25.588Z,7.60
2018-10-01T05:59:53.975Z,9.53
2018-10-01T06:02:22.353Z,9.63
2018-10-01T06:04:50.672Z,7.93
2018-10-01T06:07:19.019Z,8.47
2018-10-01T06:09:47.456Z,8.53
2018-10-01T06:12:15.793Z,6.60
2018-10-01T06:14:44.276Z,7.83
2018-10-01T06:17:12.728Z,13.10
2018-10-01T06:19:41.128Z,8.63
2018-10-01T06:22:09.455Z,8.43
2018-10-01T06:24:37.796Z,8.47
2018-10-01T06:27:06.246Z,11.73
2018-10-01T06:29:34.743Z,8.40
2018-10-01T06:32:03.151Z,8.70
2018-10-01T06:34:31.563Z,8.07
2018-10-01T06:36:59.911Z,7.80
2018-10-01T06:39:28.354Z,6.80
2018-10-01T06:41:56.872Z,10.90
2018-10-01T06:44:25.160Z,9.47
2018-10-01T06:46:53.494Z,11.27
2018-10-01T06:49:21.958Z,8.50
2018-10-01T06:51:50.357Z,10.33
2018-10-01T06:54:19.175Z,7.20
2018-10-01T06:56:47.677Z,11.63
2018-10-01T06:59:16.089Z,9.50
2018-10-01T07:01:44.807Z,8.53
2018-10-01T07:04:13.335Z,9.50
2018-10-01T07:06:41.774Z,12.30
2018-10-01T07:09:11.049Z,6.60
2018-10-01T07:11:39.970Z,10.83
2018-10-01T07:14:08.468Z,11.37
2018-10-01T07:16:36.921Z,7.83
2018-10-01T07:19:05.381Z,7.70
2018-10-01T07:21:33.804Z,7.83
2018-10-01T07:24:02.229Z,10.90
2018-10-01T07:26:31.126Z,9.77
2018-10-01T07:29:00.145Z,9.97
2018-10-01T07:31:28.576Z,6.50
2018-10-01T07:33:57.013Z,7.63
2018-10-01T07:36:25.545Z,7.70
2018-10-01T07:38:54.184Z,9.07
2018-10-01T07:41:22.495Z,6.27
2018-10-01T07:43:50.920Z,9.13
2018-10-01T07:46:19.289Z,10.00
2018-10-01T07:48:47.640Z,7.50
2018-10-01T07:51:16.205Z,6.93
2018-10-01T07:53:44.778Z,8.43
2018-10-01T07:56:13.524Z,6.83
2018-10-01T07:58:42.051Z,7.70
2018-10-01T08:01:10.540Z,6.50
2018-10-01T08:03:38.902Z,11.07
2018-10-01T08:06:07.270Z,8.07
2018-10-01T08:08:35.685Z,8.20
2018-10-01T08:11:04.042Z,7.77
2018-10-01T08:13:32.354Z,5.90
2018-10-01T08:16:00.646Z,9.47
2018-10-01T08:18:29.026Z,9.60
2018-10-01T08:20:57.397Z,9.00
2018-10-01T08:23:32.620Z,11.73
2018-10-01T08:26:01.863Z,6.43
2018-10-01T08:28:30.266Z,8.90
2018-10-01T08:30:58.636Z,8.80
2018-10-01T08:33:27.038Z,11.27
2018-10-01T08:35:55.392Z,10.33
2018-10-01T08:38:23.882Z,7.43
2018-10-01T08:40:52.126Z,6.43
2018-10-01T08:43:20.470Z,6.47
2018-10-01T08:45:48.908Z,7.47
2018-10-01T08:48:18.074Z,9.80
2018-10-01T08:51:02.454Z,13.73
2018-10-01T08:53:36.770Z,8.23
2018-10-01T08:56:05.153Z,5.63
2018-10-01T08:58:33.559Z,7.97
2018-10-01T09:01:01.999Z,4.80
2018-10-01T09:03:30.361Z,4.83
2018-10-01T09:05:58.737Z,4.50
2018-10-01T09:08:27.222Z,6.53
2018-10-01T09:10:55.582Z,6.43
2018-10-01T09:13:23.876Z,7.43
2018-10-01T09:15:52.239Z,6.00
2018-10-01T09:18:20.754Z,5.37
2018-10-01T09:20:49.135Z,4.80
2018-10-01T09:23:17.460Z,5.57
2018-10-01T09:25:45.993Z,5.47
2018-10-01T09:28:14.396Z,4.43
2018-10-01T09:30:42.755Z,7.33
2018-10-01T09:33:11.097Z,5.43
2018-10-01T09:35:39.571Z,4.67
2018-10-01T09:38:07.884Z,4.13
2018-10-01T09:40:36.242Z,4.50
2018-10-01T09:43:04.531Z,5.83
2018-10-01T09:45:32.919Z,2.73
2018-10-01T09:48:01.380Z,5.83
2018-10-01T09:50:29.717Z,4.67
2018-10-01T09:52:58.116Z,3.70
2018-10-01T09:55:26.471Z,4.93
2018-10-01T09:57:54.811Z,4.10
2018-10-01T10:00:28.802Z,4.60
2018-10-01T10:02:57.172Z,5.63
2018-10-01T10:05:25.526Z,5.87
2018-10-01T10:07:54.033Z,4.90
2018-10-01T10:10:22.442Z,3.63
2018-10-01T10:12:50.814Z,4.37
2018-10-01T10:15:19.177Z,4.77
2018-10-01T10:17:47.503Z,5.60
2018-10-01T10:20:15.990Z,7.43
2018-10-01T10:22:44.360Z,3.00
2018-10-01T10:25:12.817Z,3.57
2018-10-01T10:27:41.279Z,3.10
2018-10-01T10:30:10.022Z,5.97
2018-10-01T10:32:38.637Z,10.77
2018-10-01T10:35:07.258Z,2.00
2018-10-01T10:37:35.685Z,2.60
2018-10-01T10:40:04.159Z,4.00
2018-10-01T10:42:32.548Z,4.23
2018-10-01T10:45:00.857Z,2.87
2018-10-01T10:47:29.216Z,6.37
2018-10-01T10:49:57.586Z,4.70
2018-10-01T10:52:26.026Z,2.03
2018-10-01T10:54:54.413Z,3.23
2018-10-01T10:57:22.843Z,2.57
2018-10-01T10:59:51.184Z,4.57
2018-10-01T11:02:19.559Z,6.00
2018-10-01T11:04:47.985Z,2.60
2018-10-01T11:07:16.487Z,1.17
2018-10-01T11:09:44.926Z,4.17
2018-10-01T11:12:13.346Z,2.93
2018-10-01T11:51:54.050Z,2.43
2018-10-01T11:54:22.257Z,2.10
2018-10-01T11:56:50.396Z,3.33
2018-10-01T11:59:18.584Z,4.40
2018-10-01T12:01:46.835Z,2.37
2018-10-01T12:04:15.015Z,3.20
2018-10-01T12:06:43.187Z,4.43
2018-10-01T12:09:12.233Z,3.23
2018-10-01T12:11:40.651Z,2.43
2018-10-01T12:14:09.694Z,0.70
2018-10-01T12:16:37.858Z,2.43
2018-10-01T12:19:06.332Z,0.63
2018-10-01T12:21:34.507Z,2.53
2018-10-01T12:24:02.616Z,1.07
2018-10-01T12:26:31.223Z,1.57
2018-10-01T12:31:32.707Z,1.70
2018-10-01T12:34:01.391Z,2.80
2018-10-01T12:36:30.316Z,3.83
2018-10-01T12:38:59.071Z,2.00
2018-10-01T12:41:27.480Z,2.27
2018-10-01T12:43:55.644Z,2.20
2018-10-01T12:46:23.788Z,0.47
2018-10-01T12:48:51.959Z,0.30
2018-10-01T12:51:20.159Z,1.17
2018-10-01T12:53:48.312Z,0.90
2018-10-01T12:56:16.535Z,1.07
2018-10-01T12:58:44.753Z,0.60
2018-10-01T13:01:13.142Z,0.43
2018-10-01T13:03:41.494Z,0.93
2018-10-01T13:06:09.730Z,1.60
2018-10-01T13:08:37.907Z,1.63
2018-10-01T13:11:06.223Z,1.20
2018-10-01T13:13:34.413Z,0.70
2018-10-01T13:16:02.596Z,0.97
2018-10-01T13:18:31.004Z,1.47
2018-10-01T13:20:59.132Z,3.13
2018-10-01T13:23:27.308Z,2.53
2018-10-01T13:25:55.536Z,1.33
2018-10-01T13:28:23.715Z,2.67
2018-10-01T13:30:51.892Z,2.33
2018-10-01T13:33:20.084Z,1.93
2018-10-01T13:35:48.272Z,3.60
2018-10-01T13:38:16.458Z,4.37
2018-10-01T13:40:44.654Z,5.00
2018-10-01T13:43:12.812Z,2.73
2018-10-01T13:45:40.999Z,2.80
2018-10-01T13:48:09.341Z,3.70
2018-10-01T13:50:37.553Z,2.03
2018-10-01T13:53:06.175Z,5.73
2018-10-01T13:55:34.761Z,4.90
2018-10-01T13:58:03.841Z,3.37
2018-10-01T14:00:32.147Z,4.03
2018-10-01T14:03:00.390Z,3.17
2018-10-01T14:05:28.775Z,4.07
2018-10-01T14:07:57.151Z,2.13
2018-10-01T14:10:25.621Z,2.60
2018-10-01T14:12:54.009Z,1.63
2018-10-01T14:15:22.411Z,1.90
2018-10-01T14:17:50.867Z,5.37
2018-10-01T14:20:19.234Z,2.00
2018-10-01T14:22:47.694Z,2.33
2018-10-01T14:25:16.141Z,3.27
2018-10-01T14:27:45.016Z,4.70
2018-10-01T14:30:13.450Z,2.43
2018-10-01T14:32:41.943Z,1.57
2018-10-01T14:35:10.295Z,3.30
2018-10-01T14:37:38.941Z,1.43
2018-10-01T14:40:07.608Z,1.97
2018-10-01T14:42:36.162Z,2.20
2018-10-01T14:45:04.800Z,1.63
2018-10-01T14:47:33.182Z,2.50
2018-10-01T14:50:01.618Z,2.33
2018-10-01T14:52:29.987Z,2.07
2018-10-01T14:54:58.400Z,3.50
2018-10-01T14:57:26.776Z,2.20
2018-10-01T14:59:55.116Z,2.63
2018-10-01T15:02:23.513Z,5.47
2018-10-01T15:04:51.888Z,3.97
2018-10-01T15:07:20.232Z,1.87
2018-10-01T15:09:48.645Z,4.20
2018-10-01T15:12:17.177Z,4.13
2018-10-01T15:14:45.578Z,3.13
2018-10-01T15:17:13.947Z,3.57
2018-10-01T15:19:42.366Z,3.37
2018-10-01T15:22:10.733Z,4.17
2018-10-01T15:24:39.297Z,5.87
2018-10-01T15:27:07.485Z,2.47
2018-10-01T15:29:35.999Z,2.67
2018-10-01T15:32:04.388Z,1.70
2018-10-01T15:38:40.909Z,1.00
2018-10-01T15:41:33.398Z,1.07
2018-10-01T15:44:34.848Z,3.90
2018-10-01T15:54:24.602Z,3.70
2018-10-01T15:56:54.728Z,2.43
2018-10-01T16:05:28.746Z,9.43
2018-10-01T16:07:56.963Z,4.77
2018-10-01T16:10:25.335Z,3.10
2018-10-01T16:12:53.662Z,2.63
2018-10-01T16:15:21.816Z,2.47
2018-10-01T16:17:50.036Z,3.57
2018-10-01T16:20:18.185Z,2.83
2018-10-01T16:22:46.540Z,3.23
2018-10-01T16:25:14.935Z,3.93
2018-10-01T16:27:43.104Z,4.23
2018-10-01T16:30:11.341Z,4.43
2018-10-01T16:32:41.733Z,3.60
2018-10-01T16:35:10.094Z,2.47
2018-10-01T16:37:38.909Z,4.30
2018-10-01T16:40:08.507Z,4.40
2018-10-01T16:42:37.773Z,2.40
2018-10-01T16:45:06.712Z,2.47
2018-10-01T16:47:35.788Z,4.53
2018-10-01T16:50:04.941Z,2.47
2018-10-01T16:52:34.357Z,0.83
2018-10-01T16:55:04.183Z,2.30
2018-10-01T16:57:33.001Z,2.30
2018-10-01T17:00:01.707Z,2.93
2018-10-01T17:02:30.705Z,1.30
2018-10-01T17:05:00.394Z,1.97
2018-10-01T17:07:29.265Z,2.33
2018-10-01T17:09:58.261Z,1.37
2018-10-01T17:12:26.984Z,2.20
2018-10-01T17:14:55.448Z,2.20
2018-10-01T17:17:23.680Z,3.70
2018-10-01T17:19:52.635Z,1.83
2018-10-01T17:22:21.250Z,2.37
2018-10-01T17:24:50.487Z,2.57
2018-10-01T17:27:18.870Z,2.73
2018-10-01T17:29:48.690Z,4.77
2018-10-01T17:32:18.899Z,2.23
2018-10-01T17:34:47.976Z,1.97
2018-10-01T17:37:17.610Z,1.83
2018-10-01T17:39:47.462Z,2.83
2018-10-01T17:42:17.083Z,3.93
2018-10-01T17:44:46.105Z,2.97
2018-10-01T17:47:15.973Z,3.63
2018-10-01T17:49:45.546Z,3.73
2018-10-01T17:52:14.067Z,4.37
2018-10-01T17:54:42.236Z,3.70
2018-10-01T17:57:10.545Z,1.73
2018-10-01T17:59:38.769Z,3.13
2018-10-01T18:02:07.192Z,3.13
2018-10-01T18:04:35.416Z,5.57
2018-10-01T18:07:03.580Z,3.90
2018-10-01T18:09:32.285Z,2.97
2018-10-01T18:12:00.516Z,4.67
2018-10-01T18:14:28.637Z,3.37
2018-10-01T18:16:56.794Z,3.03
2018-10-01T18:19:24.976Z,4.17
2018-10-01T18:21:53.127Z,2.03
2018-10-01T18:24:22.222Z,3.40
2018-10-01T18:26:51.292Z,2.77
2018-10-01T18:29:20.196Z,4.60
2018-10-01T18:31:49.200Z,3.60
2018-10-01T18:34:18.320Z,5.03
2018-10-01T18:36:47.050Z,5.70
2018-10-01T18:39:20.949Z,3.33
2018-10-01T18:41:49.337Z,6.50
2018-10-01T18:44:17.961Z,4.73
2018-10-01T18:46:47.337Z,2.93
2018-10-01T18:49:16.360Z,4.30
2018-10-01T18:51:44.865Z,5.40
2018-10-01T18:54:13.716Z,4.53
2018-10-01T18:56:42.045Z,5.53
2018-10-01T18:59:10.468Z,3.07
2018-10-01T19:01:38.899Z,4.97
2018-10-01T19:04:13.871Z,5.40
2018-10-01T19:06:42.716Z,4.83
2018-10-01T19:09:11.915Z,2.50
2018-10-01T19:11:40.741Z,2.97
2018-10-01T19:14:09.389Z,5.53
2018-10-01T19:16:37.836Z,3.40
2018-10-01T19:19:06.356Z,4.87
2018-10-01T19:21:35.018Z,4.63
2018-10-01T19:24:03.497Z,4.23
2018-10-01T19:26:31.832Z,3.73
2018-10-01T19:29:00.214Z,3.37
2018-10-01T19:31:28.784Z,4.50
2018-10-01T19:33:57.164Z,5.23
2018-10-01T19:36:25.591Z,4.13
2018-10-01T19:38:53.985Z,3.67
2018-10-01T19:41:22.308Z,4.47
2018-10-01T19:43:50.672Z,4.67
2018-10-01T19:46:18.935Z,4.23
2018-10-01T19:48:47.083Z,3.00
2018-10-01T19:51:15.304Z,3.20
2018-10-01T19:53:43.436Z,5.30
2018-10-01T19:56:11.833Z,3.60
2018-10-01T19:58:40.320Z,3.17
2018-10-01T20:01:08.459Z,4.10
2018-10-01T20:03:36.603Z,5.33
2018-10-01T20:06:04.766Z,5.87
2018-10-01T20:08:32.940Z,5.23
2018-10-01T20:11:01.132Z,4.90
2018-10-01T20:13:29.249Z,3.30
2018-10-01T20:15:57.821Z,3.93
2018-10-01T20:18:26.288Z,4.27
2018-10-01T20:20:54.775Z,2.60
2018-10-01T20:23:22.924Z,5.67
2018-10-01T20:25:51.382Z,3.70
2018-10-01T20:28:19.749Z,5.73
2018-10-01T20:30:47.719Z,3.27
2018-10-01T20:33:16.103Z,5.77
2018-10-01T20:35:44.473Z,5.83
2018-10-01T20:38:12.435Z,5.33
2018-10-01T20:40:41.037Z,6.63
2018-10-01T20:43:09.530Z,7.73
2018-10-01T20:45:37.705Z,5.20
2018-10-01T20:48:05.888Z,4.60
2018-10-01T20:50:34.167Z,5.67
2018-10-01T20:53:02.465Z,3.97
2018-10-01T20:55:30.503Z,6.13
2018-10-01T20:57:58.648Z,6.03
2018-10-01T21:00:26.893Z,5.73
2018-10-01T21:02:55.058Z,5.67
2018-10-01T21:05:23.213Z,3.50
2018-10-01T21:07:51.649Z,3.73
2018-10-01T21:10:20.245Z,3.80
2018-10-01T21:12:48.798Z,5.70
2018-10-01T21:15:16.965Z,6.13
2018-10-01T21:17:45.155Z,8.57
2018-10-01T21:20:13.348Z,3.87
2018-10-01T21:22:41.481Z,5.20
2018-10-01T21:25:09.643Z,7.37
2018-10-01T21:27:37.836Z,6.40
2018-10-01T21:30:06.083Z,7.33
2018-10-01T21:32:34.279Z,5.40
2018-10-01T21:35:02.475Z,8.70
2018-10-01T21:37:30.629Z,5.73
2018-10-01T21:40:07.568Z,4.43
2018-10-01T21:42:35.747Z,5.87
2018-10-01T21:45:04.288Z,6.90
2018-10-01T21:47:33.200Z,7.63
2018-10-01T21:50:01.436Z,8.77
2018-10-01T21:52:30.382Z,6.43
2018-10-01T21:54:58.856Z,4.17
2018-10-01T21:57:27.102Z,5.53
2018-10-01T21:59:55.731Z,8.07
2018-10-01T22:02:23.933Z,4.07
2018-10-01T22:04:52.124Z,7.93
2018-10-01T22:07:20.377Z,5.37
2018-10-01T22:09:49.103Z,7.27
2018-10-01T22:12:17.542Z,5.57
2018-10-01T22:14:45.686Z,6.57
2018-10-01T22:17:13.862Z,6.03
2018-10-01T22:19:42.075Z,7.30
2018-10-01T22:22:10.483Z,6.63
2018-10-01T22:24:38.629Z,6.50
2018-10-01T22:27:07.195Z,4.80
2018-10-01T22:29:35.339Z,9.77
2018-10-01T22:32:03.487Z,5.67
2018-10-01T22:34:31.650Z,6.40
2018-10-01T22:36:59.837Z,5.17
2018-10-01T22:39:28.007Z,6.60
2018-10-01T22:41:56.517Z,3.50
2018-10-01T22:44:24.651Z,11.87
2018-10-01T22:46:52.795Z,6.53
2018-10-01T22:49:20.939Z,9.47
2018-10-01T22:51:49.510Z,8.03
2018-10-01T22:54:17.651Z,5.60
2018-10-01T22:56:45.808Z,7.20
2018-10-01T22:59:14.327Z,9.80
2018-10-01T23:01:42.495Z,6.83
2018-10-01T23:04:10.622Z,5.07
2018-10-01T23:06:39.164Z,7.47
2018-10-01T23:09:07.826Z,7.37
2018-10-01T23:11:36.177Z,8.23
2018-10-01T23:14:04.379Z,11.70
2018-10-01T23:16:32.802Z,5.70
2018-10-01T23:19:01.312Z,6.27
2018-10-01T23:21:29.707Z,4.13
2018-10-01T23:23:57.843Z,6.97
2018-10-01T23:26:25.975Z,8.13
2018-10-01T23:28:54.103Z,7.17
2018-10-01T23:31:22.242Z,7.33
2018-10-01T23:33:50.399Z,4.87
2018-10-01T23:36:18.538Z,7.57
2018-10-01T23:38:46.678Z,6.60
2018-10-01T23:41:14.814Z,7.83
2018-10-01T23:43:42.999Z,5.00
2018-10-01T23:46:11.135Z,6.53
2018-10-01T23:48:39.307Z,8.10
2018-10-01T23:51:07.429Z,7.77
2018-10-01T23:53:35.694Z,8.23
2018-10-01T23:56:03.820Z,4.70
2018-10-01T23:58:32.067Z,7.37
